Pyle, United Kingdom
Current Conditions -  °F | °C
As of 12:50 PM on Thursday 27 Nov 2014 (Local Time) from EGDX Reporting Station
Haze Haze  
Wind Chill: 41°   Ceiling: 2900
Heat Index: 45°   Visibility: 2.5mi
Dew Point: 45°   Wind: 7mph
Humidity: 100%   Direction: 60°ENE
Pressure: 29.56"   Gusts: NA
Location:  51.52°N, 3.7°W
Report Text: EGDX 271250Z 06006KT 4000 BR SCT002 BKN029 07/07 Q1001 AMB
Loading
Personal Weather Stations






























Interactive Weather Map New forecast layout! Learn more

10-Day Weather Forecast

Advertisements
Track Severe Weather on mobile